Terminal Aerodrome Forecast
Issued by NWS Kansas City/Pleasant Hill, MO

Home | Current Version | Previous Version | Text Only | Print | Product List | Glossary On
Versions: 1 2 3 4 5 6 7 8 9 10 11 12 13 14 15 16 17 18 19 20 21 22 23
000
FTUS43 KEAX 180900 AAB
TAFMCI
TAF AMD
KMCI 180925Z 1809/1906 09005KT 4SM BR OVC005
      TEMPO 1810/1814 1SM BR OVC003
     FM181400 09005KT 5SM BR OVC008
     FM181700 10008KT P6SM SCT020
     FM190000 09005KT P6SM BKN020=

USA.gov is the U.S. government's official web portal to all federal, state and local government web resources and services.